Portada
METAR-TAF:

METAR-TAF

Aeropuertos :

Aeropuerto Internacional Amata Kabua

Majuro, Islas Marshall

latitud: 07-04N, longitud: 171-17E, altitud: 2 m

Observación

El informe se hizo hace 29 minutos, a las 01:55 UTC
Viento 20 kt del este-noreste
Temperatura 30°C
Humedad 75%
Presión 1006 hPa
Visibilidad: 24.1 km
Escasas nubes a una altura de 1500 ft
Nubes dispersas a una altura de 5000 ft
Cielo nuboso a una altura de 30000 ft

METAR: PKMJ 190155Z 06020KT 15SM FEW015 SCT050 BKN300 30/25 A2971

Hora: 14:24 (02:24 UTC)

Pronóstico

El informe se hizo hace 3 horas y 0 minutos, a las 23:24 UTC
Pronóstico válido del 19 a las 00 UTC al 19 a las 24 UTC
Viento 15 kt del este-noreste
Visibilidad: 10 km
Nubes dispersas a una altura de 1500 ft
Nubes dispersas a una altura de 5000 ft
chaparrones en las proximidades

TAF: PKMJ 182324Z 1900/1924 06015KT P6SM VCSH SCT015 SCT050

Observaciones y pronósticos meteorológicos de más de 4000 aeropuertos (mensajes METAR y TAF).

Los puntos amarillos y rojos representan las estaciones disponibles.

Ponga el ratón en el punto deseado para ver el nombre de la estación.

Haga clic para ver las observaciones y los pronósticos meteorológicos.

Para cambiar el mapa : haga clic en los botones verdes con una cruz de color negro para hacer un zoom, en el botón verde con un guión para alejar o en las flechas verdes para mapas adyacentes.


METAR-TAF: